松山空港の過去48時間の天気

松山空港 (Matsuyama)

現在時刻: 11/19 15:19 JST (11/19 06:19 UTC) 以下の時間は現地時間です。

過去48時間のMETAR気象情報
時間 風向 風速(m/s) 視程 気温(℃) 湿度(%) 気圧(hPa) 天気現象
19 15:00 西北西 5 10km以上 13 44 1018
19 14:00 北西 6 10km以上 14 41 1018
19 13:00 北西 6 10km以上 14 47 1018
19 12:00 北西 5 10km以上 14 47 1019
19 11:00 西北西 7 10km以上 14 51 1020
19 10:00 北西 7 10km以上 13 44 1020
19 09:00 北西 5 10km以上 13 47 1019
19 08:00 6 10km以上 13 51 1018
19 07:00 北西 6 10km以上 13 54 1017
19 06:10 北西 8 10km以上 13 58 1017
18 21:00 西 8 10km以上 18 64 1015
18 20:00 西南西 7 10km以上 18 68 1015
18 19:00 西 7 10km以上 18 77 1015
18 18:32 西 4 5000m 17 88 1014 弱いしゅう雨 もや
18 18:06 西北西 4 3500m 17 88 1014 しゅう雨 もや
18 18:00 西北西 6 3500m 17 88 1014 弱いしゅう雨 もや
18 17:34 西 10 4000m 17 83 1014 弱いしゅう雨 もや
18 17:00 西 9 10km以上 18 83 1013 弱いしゅう雨
18 16:00 西 8 8000m 19 88 1013 周辺でしゅう雨
18 15:00 西 11 5000m 19 88 1012 弱いしゅう雨 もや
18 14:47 南西 8 10km以上 23 73 1012 弱いしゅう雨
18 14:00 南南西 7 10km以上 23 69 1012 周辺でしゅう雨
18 13:00 9 10km以上 24 61 1012
18 12:04 8 10km以上 24 61 1013
18 12:00 9 10km以上 24 57 1013
18 11:04 8 10km以上 25 50 1014
18 11:00 8 10km以上 25 50 1014
18 10:00 南南東 8 10km以上 24 54 1014
18 09:28 8 10km以上 23 57 1015
18 09:00 7 10km以上 24 54 1016 周辺でしゅう雨
18 08:00 5 10km以上 23 53 1016
18 07:00 7 10km以上 21 56 1016
18 06:10 南南東 5 10km以上 17 68 1016
17 21:00 南東 4 10km以上 12 88 1022
17 20:00 東南東 3 10km以上 16 72 1022
17 19:00 南東 5 10km以上 16 77 1021
17 18:00 東南東 4 10km以上 17 72 1021
17 17:00 不定 1 10km以上 19 64 1021
17 16:00 3 10km以上 20 56 1021
RJOM 190600Z 30010KT 9999 FEW030 BKN050 13/01 Q1018
RJOM 190500Z 31011KT 9999 FEW030 SCT050 14/01 Q1018
RJOM 190400Z 31012KT 9999 FEW030 SCT050 14/03 Q1018
RJOM 190300Z 31010KT 9999 FEW035 SCT050 14/03 Q1019
RJOM 190200Z 30013KT 9999 FEW030 BKN080 14/04 Q1020
RJOM 190100Z 31013KT 9999 FEW030 BKN050 13/01 Q1020
RJOM 190000Z 31010KT 9999 FEW030 SCT035 BKN050 13/02 Q1019
RJOM 182300Z 35011KT 9999 FEW030 BKN050 13/03 Q1018
RJOM 182200Z 32012KT 300V360 9999 FEW030 BKN050 13/04 Q1017
RJOM 182110Z 32015KT 9999 FEW030 SCT050 13/05 Q1017 RMK 1CU030 3SC050 A3004
RJOM 181200Z 26016KT 9999 FEW020 SCT030 BKN080 18/11 Q1015
RJOM 181100Z 25014KT 9999 FEW020 SCT030 BKN050 18/12 Q1015
RJOM 181000Z 27013KT 9999 FEW015 SCT025 BKN040 18/14 Q1015
RJOM 180932Z 26007KT 5000 -SHRA BR FEW006 SCT020 BKN030 17/15 Q1014 RMK 1ST006 4CU020 6CU030 A2997
RJOM 180906Z 29008KT 3500 SHRA BR FEW007 SCT015 BKN025 17/15 Q1014 RMK 2ST007 4CU015 6CU025 A2997
RJOM 180900Z 29011KT 3500 -SHRA BR FEW007 SCT015 BKN025 17/15 Q1014
RJOM 180834Z 28019KT 4000 -SHRA BR FEW006 BKN020 BKN030 17/14 Q1014 RMK 2ST006 5CU020 6CU030 A2995
RJOM 180800Z 27018KT 9999 -SHRA FEW008 BKN025 BKN035 18/15 Q1013
RJOM 180700Z 28015KT 8000 VCSH FEW008 BKN020 BKN035 19/17 Q1013
RJOM 180600Z 28021KT 5000 -SHRA BR FEW015 BKN030 BKN040 19/17 Q1012
RJOM 180547Z 23015G25KT 9999 -SHRA FEW010 BKN025 BKN035 23/18 Q1012 RMK 2CU010 5CU025 7CU035 A2989
RJOM 180500Z 21014KT 9999 VCSH FEW025 SCT050 BKN080 23/17 Q1012
RJOM 180400Z 19017G27KT 9999 FEW030 SCT070 BKN100 24/16 Q1012
RJOM 180304Z 18015G26KT 9999 FEW025 SCT070 BKN150 24/16 Q1013 RMK 1CU025 3AC070 5AC150 A2992
RJOM 180300Z 18017KT 140V210 9999 FEW025 SCT070 BKN150 24/15 Q1013
RJOM 180204Z 18015G25KT 9999 FEW025 SCT080 BKN150 25/14 Q1014 RMK 1CU025 3AC080 5AC150 A2994
RJOM 180200Z 17016KT 9999 FEW025 SCT080 BKN150 25/14 Q1014
RJOM 180100Z 16015G27KT 130V200 9999 FEW025 SCT040 BKN080 24/14 Q1014
RJOM 180028Z 17015G25KT 140V210 9999 FEW030 SCT040 BKN070 23/14 Q1015 RMK 1CU030 3CU040 6AC070 A2999
RJOM 180000Z 19014KT 160V230 9999 VCSH FEW030 BKN070 24/14 Q1016
RJOM 172300Z 18010KT 120V210 9999 FEW030 BKN070 23/13 Q1016
RJOM 172200Z 18014KT 9999 FEW030 SCT070 21/12 Q1016
RJOM 172110Z 15010KT 140V200 9999 FEW030 17/11 Q1016 RMK 1CU030 A3001
RJOM 171200Z 13007KT 9999 FEW030 SCT/// 12/10 Q1022
RJOM 171100Z 12005KT 9999 FEW030 16/11 Q1022
RJOM 171000Z 13009KT 9999 FEW030 SCT110 16/12 Q1021
RJOM 170900Z 12008KT 9999 FEW030 SCT110 BKN/// 17/12 Q1021
RJOM 170800Z VRB01KT 9999 FEW040 SCT/// 19/12 Q1021
RJOM 170700Z 36006KT 9999 FEW040 BKN/// 20/11 Q1021